Please be sure to check the latest weather conditions by clicking the link and viewing our local weather information!

Check Weather

Welcome to Lakeway Airpark (3R9)

FromTheAir

We’re a community airpark nestled within the town of Lakeway, Texas (17 miles northwest of downtown Austin).

Lakeway Airpark, Inc. was formed by Lakeway residents and interested parties to own and manage Lakeway Airpark (3R9).

The Airpark is a privately owned not for profit public use airport for residents and guests of Lakeway. No public funds are used and the airport is supported by fees and fuel sales at the airport.

Lakeway Airpark is an unmanned facility open for use from Sunrise to Sunset seven days a week. Takeoffs and landings are not permitted at night, between Sunset and Sunrise, by City Ordinance.

Quick Weather Info

Available data for KAUS from the past 2 hours
AUSTIN, TX
Metar
KAUS 171910Z 32005KT 6SM BR OVC005 12/11 A3017 RMK AO2 T01220106

19:10 UTC

Wind: 320° 5kt

Visibility: 6 SM

Sky: OVC 500 ft

Temp: 12 deg C / 53.6 deg F

Dewpoint: 11 deg C / 51.8 deg F

Pressure: 30.17 inHg

TAF
KAUS 171730Z 1718/1824 31004KT 6SM -SHRA BKN005 OVC020 FM171900 16009KT P6SM VCSH OVC012 FM172300 16008KT P6SM BKN035 FM180400 18006KT P6SM OVC012 FM180900 19005KT 3SM BR VCSH OVC009 TEMPO 1809/1812 1/2SM FG OVC004 FM181600 01012KT P6SM VCSH OVC035 FM181900 02012KT P6SM FEW250
Pirep (1)
AUS UA /OV 1S/TM 1756/FL003/TP A320/SK OVC003